Terminal Aerodrome Forecast
Issued by NWS Memphis, TN

Home | Current Version | Previous Version | Text Only | Print | Product List | Glossary On
Versions: 1 2 3 4 5 6 7 8 9 10 11 12 13 14 15 16 17 18 19 20 21 22 23 24 25 26 27 28 29 30 31 32 33
000
FTUS44 KMEG 292208 AAB
TAFMEM
TAF AMD
KMEM 292208Z 2922/3018 30005KT P6SM FEW050 OVC200
     FM300000 32005KT P6SM VCTS FEW050CB OVC200
     FM300100 VRB02KT P6SM FEW100 BKN250
     FM301500 05005KT P6SM SCT040 BKN150=

USA.gov is the U.S. government's official web portal to all federal, state and local government web resources and services.